Terminal Aerodrome Forecast
Issued by NWS

Current Version | Previous Version | Text Only | Print | Product List | Glossary On
Versions: 1 2 3 4 5 6 7 8 9 10 11 12 13 14 15 16 17 18 19
000
FTUS45 KREV 222300
TAFMMH
TAF
KMMH 222320Z 2300/2324 11009KT P6SM SCT180
     FM230200 30008KT P6SM BKN180
     FM231800 12008KT P6SM BKN140
      AMD NOT SKED 2302/2314=

USA.gov is the U.S. government's official web portal to all federal, state and local government web resources and services.